Terminal Aerodrome Forecast
Issued by NWS Upton, NY

Home | Current Version | Previous Version | Text Only | Print | Product List | Glossary On
Versions: 1 2 3 4 5 6 7 8 9 10 11 12 13 14 15 16 17 18 19 20 21 22 23 24
064
FTUS41 KOKX 100526
TAFBDR
TAF
KBDR 100526Z 1006/1106 VRB03KT 6SM -SN FEW025 OVC050
      TEMPO 1008/1012 2SM -SN BKN010 OVC025
     FM101600 28010KT P6SM SCT025 BKN035
     FM101900 28013KT P6SM BKN040
     FM110000 27007KT P6SM BKN040=

USA.gov is the U.S. government's official web portal to all federal, state and local government web resources and services.